createdAt,value
2023-11-25T00:00:52.141Z,94427.69
2023-11-25T00:03:19.895Z,94414.50
2023-11-25T00:05:47.879Z,94419.25
2023-11-25T00:08:16.523Z,94439.03
2023-11-25T00:10:44.261Z,94428.13
2023-11-25T00:13:12.309Z,94437.59
2023-11-25T00:15:40.723Z,94430.88
2023-11-25T00:18:10.006Z,94431.41
2023-11-25T00:20:38.376Z,94426.34
2023-11-25T00:23:06.789Z,94416.63
2023-11-25T00:25:34.546Z,94418.56
2023-11-25T00:28:02.399Z,94422.44
2023-11-25T00:30:30.475Z,94402.94
2023-11-25T00:32:58.351Z,94429.78
2023-11-25T00:35:27.520Z,94412.38
2023-11-25T00:37:55.351Z,94411.72
2023-11-25T00:40:26.757Z,94424.38
2023-11-25T00:42:54.565Z,94416.63
2023-11-25T00:45:26.232Z,94424.19
2023-11-25T00:47:54.448Z,94421.16
2023-11-25T00:50:22.313Z,94421.06
2023-11-25T00:52:51.596Z,94408.06
2023-11-25T00:55:19.309Z,94424.97
2023-11-25T00:57:47.202Z,94432.53
2023-11-25T01:00:18.168Z,94434.47
2023-11-25T01:02:46.370Z,94428.47
2023-11-25T01:05:14.320Z,94474.47
2023-11-25T01:07:42.081Z,94426.16
2023-11-25T01:10:12.784Z,94437.19
2023-11-25T01:12:40.583Z,94436.91
2023-11-25T01:15:09.461Z,94444.53
2023-11-25T01:17:37.161Z,94446.66
2023-11-25T01:20:06.728Z,94466.00
2023-11-25T01:22:34.652Z,94462.22
2023-11-25T01:25:02.482Z,94483.75
2023-11-25T01:27:31.818Z,94476.59
2023-11-25T01:29:59.744Z,94484.66
2023-11-25T01:32:27.444Z,94484.50
2023-11-25T01:34:56.376Z,94490.81
2023-11-25T01:37:27.651Z,94529.16
2023-11-25T01:39:55.561Z,94518.22
2023-11-25T01:42:23.270Z,94516.81
2023-11-25T01:44:53.024Z,94519.09
2023-11-25T01:47:21.150Z,94529.97
2023-11-25T01:49:49.536Z,94515.84
2023-11-25T01:52:18.701Z,94532.47
2023-11-25T01:54:46.564Z,94553.56
2023-11-25T01:57:15.896Z,94540.25
2023-11-25T01:59:43.768Z,94566.03
2023-11-25T02:02:17.182Z,94551.78
2023-11-25T02:04:44.985Z,94539.53
2023-11-25T02:07:13.125Z,94569.31
2023-11-25T02:09:41.653Z,94564.09
2023-11-25T02:12:09.526Z,94576.13
2023-11-25T02:14:38.430Z,94575.44
2023-11-25T02:17:07.117Z,94585.50
2023-11-25T02:19:36.271Z,94571.16
2023-11-25T02:22:07.854Z,94581.09
2023-11-25T02:24:36.891Z,94586.81
2023-11-25T02:27:06.002Z,94582.56
2023-11-25T02:29:36.221Z,94588.66
2023-11-25T02:32:04.974Z,94597.47
2023-11-25T02:34:33.137Z,94587.66
2023-11-25T02:37:01.070Z,94599.94
2023-11-25T02:39:29.715Z,94622.97
2023-11-25T02:41:59.440Z,94640.81
2023-11-25T02:44:28.529Z,94636.59
2023-11-25T02:46:56.261Z,94629.06
2023-11-25T02:49:24.035Z,94629.63
2023-11-25T02:51:52.706Z,94653.47
2023-11-25T02:54:22.560Z,94665.81
2023-11-25T02:56:51.069Z,94663.47
2023-11-25T02:59:20.455Z,94669.19
2023-11-25T03:01:53.002Z,94669.25
2023-11-25T03:04:21.681Z,94679.81
2023-11-25T03:06:52.262Z,94682.56
2023-11-25T03:09:20.558Z,94691.56
2023-11-25T03:11:48.711Z,94696.44
2023-11-25T03:14:17.337Z,94702.69
2023-11-25T03:16:48.442Z,94706.97
2023-11-25T03:19:16.267Z,94709.34
2023-11-25T03:21:44.515Z,94706.09
2023-11-25T03:24:12.468Z,94712.91
2023-11-25T03:26:40.519Z,94702.06
2023-11-25T03:29:09.003Z,94723.38
2023-11-25T03:31:42.621Z,94727.28
2023-11-25T03:34:11.838Z,94738.16
2023-11-25T03:36:39.977Z,94735.25
2023-11-25T03:39:10.657Z,94740.19
2023-11-25T03:41:38.553Z,94750.53
2023-11-25T03:44:07.614Z,94753.59
2023-11-25T03:46:35.639Z,94759.50
2023-11-25T03:49:03.808Z,94762.88
2023-11-25T03:51:33.125Z,94764.25
2023-11-25T03:54:00.859Z,94766.94
2023-11-25T03:56:28.677Z,94768.44
2023-11-25T03:58:56.595Z,94771.75
2023-11-25T04:01:24.603Z,94776.53
2023-11-25T04:03:52.448Z,94785.56
2023-11-25T04:06:20.734Z,94795.09
2023-11-25T04:08:50.075Z,94780.44
2023-11-25T04:11:19.152Z,94790.84
2023-11-25T04:13:48.107Z,94798.97
2023-11-25T04:16:16.928Z,94799.88
2023-11-25T04:18:44.791Z,94809.41
2023-11-25T04:21:12.625Z,94803.69
2023-11-25T04:23:40.741Z,94805.63
2023-11-25T04:26:10.067Z,94814.28
2023-11-25T04:28:38.100Z,94810.03
2023-11-25T04:31:05.859Z,94819.34
2023-11-25T04:33:36.177Z,94819.03
2023-11-25T04:36:04.601Z,94819.56
2023-11-25T04:38:32.408Z,94831.00
2023-11-25T04:41:00.184Z,94829.03
2023-11-25T04:43:29.796Z,94829.97
2023-11-25T04:45:57.996Z,94836.97
2023-11-25T04:48:26.430Z,94844.94
2023-11-25T04:50:54.109Z,94848.84
2023-11-25T04:53:22.384Z,94838.59
2023-11-25T04:55:50.610Z,94851.28
2023-11-25T04:58:19.641Z,94843.19
2023-11-25T05:00:49.088Z,94848.03
2023-11-25T05:03:18.526Z,94850.50
2023-11-25T05:05:47.037Z,94856.47
2023-11-25T05:08:14.729Z,94848.31
2023-11-25T05:10:43.042Z,94851.00
2023-11-25T05:13:12.882Z,94856.91
2023-11-25T05:15:43.045Z,94851.34
2023-11-25T05:18:12.073Z,94851.63
2023-11-25T05:20:39.984Z,94857.31
2023-11-25T05:23:08.137Z,94865.38
2023-11-25T05:25:36.084Z,94867.13
2023-11-25T05:28:04.401Z,94873.97
2023-11-25T05:30:32.253Z,94878.31
2023-11-25T05:32:59.976Z,94875.59
2023-11-25T05:35:29.164Z,94869.75
2023-11-25T05:37:56.918Z,94870.69
2023-11-25T05:40:24.642Z,94868.53
2023-11-25T05:42:55.224Z,94877.00
2023-11-25T05:45:27.435Z,94868.69
2023-11-25T05:47:55.672Z,94871.56
2023-11-25T05:50:23.759Z,94879.44
2023-11-25T05:52:53.429Z,94872.47
2023-11-25T05:55:21.975Z,94878.91
2023-11-25T05:57:52.331Z,94882.19
2023-11-25T06:00:20.970Z,94896.38
2023-11-25T06:02:48.713Z,94898.97
2023-11-25T06:05:16.852Z,94901.25
2023-11-25T06:07:44.732Z,94896.91
2023-11-25T06:10:14.209Z,94897.31
2023-11-25T06:12:42.765Z,94894.41
2023-11-25T06:15:12.546Z,94906.19
2023-11-25T06:17:40.497Z,94899.44
2023-11-25T06:20:09.332Z,94908.78
2023-11-25T06:22:37.236Z,94907.09
2023-11-25T06:25:06.492Z,94910.53
2023-11-25T06:27:35.520Z,94900.75
2023-11-25T06:30:03.863Z,94903.22
2023-11-25T06:32:34.043Z,94907.44
2023-11-25T06:35:01.957Z,94910.31
2023-11-25T06:37:29.700Z,94915.50
2023-11-25T06:39:57.671Z,94918.22
2023-11-25T06:42:26.165Z,94927.47
2023-11-25T06:44:55.354Z,94929.25
2023-11-25T06:47:23.376Z,94930.09
2023-11-25T06:49:52.596Z,94932.69
2023-11-25T06:52:20.746Z,94934.03
2023-11-25T06:54:48.846Z,94923.94
2023-11-25T06:57:16.583Z,94932.94
2023-11-25T06:59:46.879Z,94931.03
2023-11-25T07:02:16.481Z,94935.69
2023-11-25T07:04:44.443Z,94949.34
2023-11-25T07:07:12.490Z,94951.88
2023-11-25T07:09:40.207Z,94953.22
2023-11-25T07:12:09.716Z,94945.19
2023-11-25T07:14:38.461Z,94950.00
2023-11-25T07:17:06.239Z,94962.09
2023-11-25T07:19:35.372Z,94956.38
2023-11-25T07:22:04.785Z,94960.00
2023-11-25T07:24:34.080Z,94961.75
2023-11-25T07:27:06.008Z,94970.19
2023-11-25T07:29:33.749Z,94969.06
2023-11-25T07:32:02.152Z,94973.00
2023-11-25T07:34:32.141Z,94975.00
2023-11-25T07:37:01.582Z,94969.38
2023-11-25T07:39:31.036Z,94963.25
2023-11-25T07:41:59.251Z,94964.75
2023-11-25T07:44:31.269Z,94971.69
2023-11-25T07:46:59.280Z,94968.84
2023-11-25T07:49:27.543Z,94969.91
2023-11-25T07:51:55.362Z,94976.88
2023-11-25T07:54:24.929Z,94967.19
2023-11-25T07:56:52.767Z,94977.00
2023-11-25T07:59:21.718Z,94965.44
2023-11-25T08:01:49.790Z,94966.78
2023-11-25T08:04:18.041Z,94969.88
2023-11-25T08:06:46.055Z,94975.47
2023-11-25T08:09:16.128Z,94979.00
2023-11-25T08:11:45.321Z,94981.19
2023-11-25T08:14:13.253Z,94979.03
2023-11-25T08:16:41.190Z,94972.97
2023-11-25T08:19:09.159Z,94975.44
2023-11-25T08:21:36.844Z,94972.59
2023-11-25T08:24:04.757Z,94965.63
2023-11-25T08:26:32.473Z,94968.31
2023-11-25T08:29:04.047Z,94976.38
2023-11-25T08:31:31.986Z,94973.44
2023-11-25T08:34:03.975Z,94980.84
2023-11-25T08:36:31.709Z,94981.53
2023-11-25T08:39:02.572Z,94983.41
2023-11-25T08:41:31.098Z,94989.84
2023-11-25T08:44:00.521Z,94989.72
2023-11-25T08:46:29.745Z,94987.19
2023-11-25T08:48:57.796Z,94987.34
2023-11-25T08:51:25.476Z,94994.59
2023-11-25T08:53:55.291Z,94991.75
2023-11-25T08:56:27.366Z,94996.59
2023-11-25T08:59:06.196Z,94997.09
2023-11-25T09:01:40.729Z,94998.28
2023-11-25T09:04:08.998Z,95002.47
2023-11-25T09:06:38.192Z,95003.22
2023-11-25T09:09:08.348Z,95004.69
2023-11-25T09:11:36.472Z,95007.78
2023-11-25T09:14:05.400Z,95014.53
2023-11-25T09:16:33.409Z,95011.91
2023-11-25T09:19:03.845Z,95018.03
2023-11-25T09:21:31.722Z,95022.38
2023-11-25T09:23:59.703Z,95029.63
2023-11-25T09:26:27.824Z,95034.47
2023-11-25T09:28:56.303Z,95028.81
2023-11-25T09:31:24.983Z,95027.59
2023-11-25T09:33:52.797Z,95029.81
2023-11-25T09:36:23.870Z,95029.88
2023-11-25T09:38:51.722Z,95029.25
2023-11-25T09:41:19.795Z,95024.22
2023-11-25T09:43:47.782Z,95032.00
2023-11-25T09:46:17.437Z,95033.63
2023-11-25T09:48:46.886Z,95033.94
2023-11-25T09:51:17.460Z,95018.44
2023-11-25T09:53:48.761Z,95026.22
2023-11-25T09:56:18.315Z,95025.69
2023-11-25T09:58:46.507Z,95019.06
2023-11-25T10:01:14.365Z,95016.59
2023-11-25T10:03:43.996Z,95012.28
2023-11-25T10:06:12.307Z,95014.84
2023-11-25T10:08:40.674Z,95016.06
2023-11-25T10:11:10.600Z,95008.34
2023-11-25T10:13:40.389Z,95017.06
2023-11-25T10:16:09.468Z,95018.47
2023-11-25T10:18:38.868Z,94998.78
2023-11-25T10:21:07.690Z,95003.03
2023-11-25T10:23:36.901Z,95006.50
2023-11-25T10:26:05.659Z,95001.09
2023-11-25T10:28:37.739Z,95001.16
2023-11-25T10:31:09.047Z,95004.03
2023-11-25T10:33:41.465Z,95012.16
2023-11-25T10:36:10.540Z,95009.16
2023-11-25T10:38:43.195Z,95014.88
2023-11-25T10:41:12.901Z,95001.41
2023-11-25T10:43:45.978Z,95009.97
2023-11-25T10:46:14.334Z,95004.00
2023-11-25T10:48:42.145Z,95010.88
2023-11-25T10:51:10.337Z,95004.59
2023-11-25T10:53:40.495Z,95001.09
2023-11-25T10:56:09.473Z,95004.19
2023-11-25T10:58:37.403Z,95008.34
2023-11-25T11:01:07.096Z,95001.72
2023-11-25T11:03:54.431Z,94998.03
2023-11-25T11:06:25.267Z,95004.50
2023-11-25T11:08:53.909Z,94994.31
2023-11-25T11:11:32.218Z,94996.53
2023-11-25T11:14:06.359Z,94993.75
2023-11-25T11:16:39.815Z,95004.44
2023-11-25T11:19:09.127Z,94998.81
2023-11-25T11:21:39.731Z,94988.13
2023-11-25T11:24:10.086Z,94980.00
2023-11-25T11:26:44.914Z,94968.53
2023-11-25T11:29:20.221Z,94974.66
2023-11-25T11:32:00.468Z,94968.81
2023-11-25T11:34:30.715Z,94970.69
2023-11-25T11:36:59.528Z,94959.13
2023-11-25T11:39:35.219Z,94963.09
2023-11-25T11:42:26.584Z,94959.22
2023-11-25T11:45:12.419Z,94954.88
2023-11-25T11:47:42.933Z,94946.22
2023-11-25T11:50:11.000Z,94943.13
2023-11-25T11:53:03.428Z,94938.88
2023-11-25T11:55:40.525Z,94932.97
2023-11-25T11:58:10.427Z,94928.31
2023-11-25T12:00:42.877Z,94919.78
2023-11-25T12:03:12.223Z,94929.09
2023-11-25T12:05:40.300Z,94926.06
2023-11-25T12:08:08.347Z,94917.28
2023-11-25T12:10:36.772Z,94913.78
2023-11-25T12:13:05.539Z,94909.53
2023-11-25T12:15:33.905Z,94911.31
2023-11-25T12:18:02.494Z,94922.63
2023-11-25T12:20:32.407Z,94917.75
2023-11-25T12:23:08.458Z,94915.78
2023-11-25T12:25:37.454Z,94901.72
2023-11-25T12:28:10.120Z,94905.63
2023-11-25T12:30:39.512Z,94893.00
2023-11-25T12:33:08.380Z,94896.53
2023-11-25T12:35:38.483Z,94898.22
2023-11-25T12:38:14.662Z,94890.38
2023-11-25T12:40:46.527Z,94888.75
2023-11-25T12:43:15.193Z,94900.28
2023-11-25T12:45:45.040Z,94892.66
2023-11-25T12:48:18.165Z,94886.31
2023-11-25T12:51:06.304Z,94901.22
2023-11-25T12:53:35.875Z,94886.06
2023-11-25T12:56:04.413Z,94883.84
2023-11-25T12:58:32.495Z,94882.22
2023-11-25T13:01:00.828Z,94900.47
2023-11-25T13:03:29.840Z,94885.22
2023-11-25T13:06:02.471Z,94882.94
2023-11-25T13:08:34.066Z,94882.63
2023-11-25T13:11:05.073Z,94886.25
2023-11-25T13:13:33.915Z,94876.00
2023-11-25T13:16:05.213Z,94877.47
2023-11-25T13:18:34.063Z,94872.22
2023-11-25T13:21:07.929Z,94876.25
2023-11-25T13:23:36.088Z,94862.31
2023-11-25T13:26:04.048Z,94858.16
2023-11-25T13:28:31.906Z,94849.56
2023-11-25T13:30:59.781Z,94847.56
2023-11-25T13:33:29.250Z,94857.41
2023-11-25T13:35:57.149Z,94840.94
2023-11-25T13:38:29.094Z,94844.38
2023-11-25T13:40:56.824Z,94842.84
2023-11-25T13:43:24.685Z,94858.78
2023-11-25T13:45:52.760Z,94848.94
2023-11-25T13:48:20.527Z,94845.34
2023-11-25T13:50:48.361Z,94835.59
2023-11-25T13:53:19.250Z,94827.50
2023-11-25T13:55:49.800Z,94829.03
2023-11-25T13:58:17.843Z,94828.00
2023-11-25T14:00:46.154Z,94828.94
2023-11-25T14:03:15.296Z,94830.03
2023-11-25T14:05:44.886Z,94828.22
2023-11-25T14:08:15.857Z,94839.13
2023-11-25T14:10:44.512Z,94834.22
2023-11-25T14:13:15.106Z,94833.25
2023-11-25T14:15:43.710Z,94826.88
2023-11-25T14:18:11.603Z,94835.84
2023-11-25T14:20:39.774Z,94832.16
2023-11-25T14:23:07.570Z,94837.81
2023-11-25T14:25:36.317Z,94852.75
2023-11-25T14:28:04.344Z,94855.78
2023-11-25T14:30:34.734Z,94851.00
2023-11-25T14:33:04.814Z,94846.09
2023-11-25T14:35:33.671Z,94849.81
2023-11-25T14:38:04.883Z,94853.63
2023-11-25T14:40:36.710Z,94851.13
2023-11-25T14:43:05.927Z,94859.75
2023-11-25T14:45:35.634Z,94851.41
2023-11-25T14:48:04.595Z,94862.84
2023-11-25T14:50:32.523Z,94852.88
2023-11-25T14:53:00.780Z,94851.75
2023-11-25T14:55:28.598Z,94854.56
2023-11-25T14:57:57.289Z,94858.06
2023-11-25T15:00:29.247Z,94848.94
2023-11-25T15:02:59.045Z,94842.06
2023-11-25T15:05:26.874Z,94844.56
2023-11-25T15:07:54.955Z,94835.09
2023-11-25T15:10:26.206Z,94835.28
2023-11-25T15:12:54.356Z,94838.53
2023-11-25T15:15:22.030Z,94838.56
2023-11-25T15:17:49.849Z,94835.94
2023-11-25T15:20:20.391Z,94828.22
2023-11-25T15:22:48.378Z,94827.59
2023-11-25T15:25:16.669Z,94829.53
2023-11-25T15:27:44.516Z,94832.59
2023-11-25T15:30:13.730Z,94826.13
2023-11-25T15:32:43.576Z,94826.16
2023-11-25T15:35:11.817Z,94831.19
2023-11-25T15:37:40.989Z,94823.41
2023-11-25T15:40:14.034Z,94839.38
2023-11-25T15:42:41.885Z,94821.72
2023-11-25T15:45:10.657Z,94838.16
2023-11-25T15:47:38.474Z,94829.28
2023-11-25T15:50:07.258Z,94822.19
2023-11-25T15:52:35.570Z,94817.28
2023-11-25T15:55:05.160Z,94818.63
2023-11-25T15:57:32.934Z,94830.09
2023-11-25T16:00:00.767Z,94831.81
2023-11-25T16:02:28.542Z,94822.06
2023-11-25T16:04:56.661Z,94823.81
2023-11-25T16:07:25.701Z,94837.59
2023-11-25T16:09:53.520Z,94829.28
2023-11-25T16:12:22.569Z,94831.78
2023-11-25T16:14:50.336Z,94833.03
2023-11-25T16:17:18.070Z,94831.09
2023-11-25T16:19:46.284Z,94837.72
2023-11-25T16:22:13.990Z,94826.66
2023-11-25T16:24:41.807Z,94832.94
2023-11-25T16:27:09.680Z,94822.19
2023-11-25T16:29:38.721Z,94808.69
2023-11-25T16:32:07.192Z,94839.94
2023-11-25T16:34:34.993Z,94831.06
2023-11-25T16:37:03.000Z,94814.19
2023-11-25T16:39:30.709Z,94821.72
2023-11-25T16:41:59.209Z,94832.09
2023-11-25T16:44:27.019Z,94837.19
2023-11-25T16:46:56.122Z,94831.53
2023-11-25T16:49:24.675Z,94835.78
2023-11-25T16:51:53.701Z,94835.09
2023-11-25T16:54:21.463Z,94840.75
2023-11-25T16:56:49.268Z,94834.50
2023-11-25T16:59:18.140Z,94814.00
2023-11-25T17:01:46.173Z,94825.22
2023-11-25T17:04:15.754Z,94836.25
2023-11-25T17:06:44.704Z,94834.34
2023-11-25T17:09:15.036Z,94844.72
2023-11-25T17:11:42.856Z,94853.28
2023-11-25T17:14:10.543Z,94848.19
2023-11-25T17:16:38.463Z,94855.88
2023-11-25T17:19:07.064Z,94859.72
2023-11-25T17:21:36.212Z,94850.28
2023-11-25T17:24:05.010Z,94878.28
2023-11-25T17:26:32.733Z,94864.38
2023-11-25T17:29:00.446Z,94868.47
2023-11-25T17:31:28.204Z,94871.72
2023-11-25T17:33:56.192Z,94872.56
2023-11-25T17:36:23.880Z,94864.69
2023-11-25T17:38:53.566Z,94863.53
2023-11-25T17:41:21.311Z,94873.19
2023-11-25T17:43:49.280Z,94888.00
2023-11-25T17:46:17.053Z,94873.41
2023-11-25T17:48:44.896Z,94865.59
2023-11-25T17:51:12.770Z,94863.00
2023-11-25T17:53:40.714Z,94870.09
2023-11-25T17:56:10.416Z,94865.78
2023-11-25T17:58:38.368Z,94867.13
2023-11-25T18:01:06.459Z,94873.16
2023-11-25T18:03:35.554Z,94864.38
2023-11-25T18:06:03.430Z,94860.09
2023-11-25T18:08:31.292Z,94856.28
2023-11-25T18:10:59.147Z,94865.78
2023-11-25T18:13:28.397Z,94862.91
2023-11-25T18:15:56.100Z,94863.88
2023-11-25T18:18:23.897Z,94861.84
2023-11-25T18:20:52.486Z,94848.00
2023-11-25T18:23:20.198Z,94862.94
2023-11-25T18:25:48.063Z,94864.69
2023-11-25T18:28:15.829Z,94866.06
2023-11-25T18:30:44.975Z,94860.78
2023-11-25T18:33:14.389Z,94858.94
2023-11-25T18:35:42.322Z,94854.06
2023-11-25T18:38:10.185Z,94856.44
2023-11-25T18:40:37.993Z,94835.66
2023-11-25T18:43:06.427Z,94853.09
2023-11-25T18:45:34.109Z,94848.28
2023-11-25T18:48:03.334Z,94849.72
2023-11-25T18:50:31.070Z,94855.63
2023-11-25T18:52:58.830Z,94854.81
2023-11-25T18:55:26.666Z,94852.88
2023-11-25T18:57:54.337Z,94843.09
2023-11-25T19:00:22.080Z,94843.69
2023-11-25T19:02:51.185Z,94838.34
2023-11-25T19:05:20.703Z,94850.88
2023-11-25T19:07:48.609Z,94853.69
2023-11-25T19:10:17.821Z,94868.78
2023-11-25T19:12:45.682Z,94857.50
2023-11-25T19:15:13.791Z,94850.59
2023-11-25T19:17:41.793Z,94855.88
2023-11-25T19:20:12.278Z,94864.03
2023-11-25T19:22:42.335Z,94850.97
2023-11-25T19:25:11.010Z,94859.44
2023-11-25T19:27:38.794Z,94875.88
2023-11-25T19:30:08.003Z,94856.34
2023-11-25T19:32:35.911Z,94868.66
2023-11-25T19:35:03.864Z,94853.63
2023-11-25T19:37:32.103Z,94857.28
2023-11-25T19:40:01.327Z,94855.75
2023-11-25T19:42:29.149Z,94878.81
2023-11-25T19:44:56.948Z,94864.44
2023-11-25T19:47:24.852Z,94854.53
2023-11-25T19:49:52.814Z,94860.41
2023-11-25T19:52:20.681Z,94859.00
2023-11-25T19:54:48.397Z,94872.66
2023-11-25T19:57:18.496Z,94869.72
2023-11-25T19:59:46.852Z,94882.63
2023-11-25T20:02:14.957Z,94881.75
2023-11-25T20:04:43.151Z,94878.56
2023-11-25T20:07:11.117Z,94868.34
2023-11-25T20:09:38.865Z,94876.69
2023-11-25T20:12:10.456Z,94880.84
2023-11-25T20:14:39.607Z,94869.94
2023-11-25T20:17:07.588Z,94892.34
2023-11-25T20:19:35.457Z,94900.72
2023-11-25T20:22:06.843Z,94892.50
2023-11-25T20:24:35.168Z,94888.56
2023-11-25T20:27:03.063Z,94876.34
2023-11-25T20:29:30.776Z,94878.13
2023-11-25T20:31:59.828Z,94874.06
2023-11-25T20:34:28.413Z,94887.00
2023-11-25T20:36:55.102Z,94893.97
2023-11-25T20:39:24.716Z,94889.78
2023-11-25T20:41:53.514Z,94888.81
2023-11-25T20:44:21.293Z,94873.28
2023-11-25T20:46:49.029Z,94882.13
2023-11-25T20:49:18.091Z,94873.47
2023-11-25T20:51:45.766Z,94888.94
2023-11-25T20:54:13.567Z,94878.53
2023-11-25T20:56:41.319Z,94875.59
2023-11-25T20:59:09.448Z,94889.84
2023-11-25T21:01:37.243Z,94893.09
2023-11-25T21:04:05.333Z,94889.38
2023-11-25T21:06:35.465Z,94872.16
2023-11-25T21:09:03.167Z,94878.75
2023-11-25T21:11:30.872Z,94895.97
2023-11-25T21:13:59.463Z,94877.28
2023-11-25T21:16:27.568Z,94888.00
2023-11-25T21:18:55.610Z,94894.22
2023-11-25T21:21:23.380Z,94875.44
2023-11-25T21:23:52.393Z,94870.47
2023-11-25T21:26:20.351Z,94897.69
2023-11-25T21:28:48.183Z,94887.34
2023-11-25T21:31:16.002Z,94882.44
2023-11-25T21:33:44.071Z,94889.19
2023-11-25T21:36:12.077Z,94885.44
2023-11-25T21:38:39.781Z,94890.91
2023-11-25T21:41:10.854Z,94880.28
2023-11-25T21:43:38.657Z,94889.53
2023-11-25T21:46:08.527Z,94878.56
2023-11-25T21:48:38.504Z,94866.66
2023-11-25T21:51:09.140Z,94885.31
2023-11-25T21:53:37.145Z,94878.28
2023-11-25T21:56:05.726Z,94872.50
2023-11-25T21:58:35.014Z,94868.09
2023-11-25T22:01:03.925Z,94878.19
2023-11-25T22:03:34.528Z,94886.88
2023-11-25T22:06:02.508Z,94919.75
2023-11-25T22:08:30.293Z,94891.06
2023-11-25T22:10:58.005Z,94908.50
2023-11-25T22:13:25.957Z,94893.09
2023-11-25T22:15:55.728Z,94899.84
2023-11-25T22:18:23.594Z,94897.19
2023-11-25T22:20:51.264Z,94909.06
2023-11-25T22:23:19.226Z,94903.34
2023-11-25T22:25:55.906Z,94893.03
2023-11-25T22:28:23.817Z,94905.03
2023-11-25T22:30:53.748Z,94915.44
2023-11-25T22:33:23.035Z,94909.66
2023-11-25T22:35:56.546Z,94921.88
2023-11-25T22:38:29.155Z,94904.06
2023-11-25T22:40:57.640Z,94906.28
2023-11-25T22:43:25.779Z,94927.75
2023-11-25T22:45:53.589Z,94918.31
2023-11-25T22:48:22.727Z,94921.88
2023-11-25T22:50:50.849Z,94922.16
2023-11-25T22:53:18.595Z,94906.34
2023-11-25T22:55:46.599Z,94925.81
2023-11-25T22:58:14.486Z,94919.94
2023-11-25T23:00:50.883Z,94912.34
2023-11-25T23:03:18.960Z,94909.13
2023-11-25T23:05:48.396Z,94917.47
2023-11-25T23:08:16.285Z,94912.97
2023-11-25T23:10:44.313Z,94926.69
2023-11-25T23:13:12.077Z,94916.00
2023-11-25T23:15:40.227Z,94923.56
2023-11-25T23:18:09.118Z,94929.69
2023-11-25T23:20:37.265Z,94929.19
2023-11-25T23:23:07.796Z,94932.28
2023-11-25T23:25:35.804Z,94941.13
2023-11-25T23:28:03.884Z,94944.13
2023-11-25T23:30:31.715Z,94948.25
2023-11-25T23:32:59.659Z,94950.47
2023-11-25T23:35:28.709Z,94961.53
2023-11-25T23:37:56.677Z,94946.56
2023-11-25T23:40:26.090Z,94956.66
2023-11-25T23:42:53.902Z,94954.34
2023-11-25T23:45:22.121Z,94970.41
2023-11-25T23:47:49.975Z,94972.59
2023-11-25T23:50:17.835Z,94966.09
2023-11-25T23:52:45.710Z,94964.91
2023-11-25T23:55:14.175Z,94974.63
2023-11-25T23:57:43.310Z,94967.81
